sensor_id;sensor_type;location;lat;lon;timestamp;P1;durP1;ratioP1;P2;durP2;ratioP2
10705;SDS011;5404;42.656;23.336;2024-03-17T00:00:49;63.45;;;29.52;;
10705;SDS011;5404;42.656;23.336;2024-03-17T00:03:15;62.55;;;29.35;;
10705;SDS011;5404;42.656;23.336;2024-03-17T00:05:40;70.35;;;31.77;;
10705;SDS011;5404;42.656;23.336;2024-03-17T00:08:06;58.50;;;29.40;;
10705;SDS011;5404;42.656;23.336;2024-03-17T00:10:33;58.33;;;29.85;;
10705;SDS011;5404;42.656;23.336;2024-03-17T00:12:59;59.50;;;29.48;;
10705;SDS011;5404;42.656;23.336;2024-03-17T00:15:25;59.42;;;30.30;;
10705;SDS011;5404;42.656;23.336;2024-03-17T00:17:51;56.13;;;29.50;;
10705;SDS011;5404;42.656;23.336;2024-03-17T00:20:17;60.28;;;31.05;;
10705;SDS011;5404;42.656;23.336;2024-03-17T00:25:16;64.90;;;31.17;;
10705;SDS011;5404;42.656;23.336;2024-03-17T00:27:45;67.35;;;32.28;;
10705;SDS011;5404;42.656;23.336;2024-03-17T00:30:13;68.95;;;31.73;;
10705;SDS011;5404;42.656;23.336;2024-03-17T00:32:39;64.85;;;32.13;;
10705;SDS011;5404;42.656;23.336;2024-03-17T00:35:06;67.60;;;32.80;;
10705;SDS011;5404;42.656;23.336;2024-03-17T00:37:36;66.28;;;31.85;;
10705;SDS011;5404;42.656;23.336;2024-03-17T00:40:03;66.82;;;32.88;;
10705;SDS011;5404;42.656;23.336;2024-03-17T00:42:29;63.00;;;31.40;;
10705;SDS011;5404;42.656;23.336;2024-03-17T00:44:55;63.42;;;31.10;;
10705;SDS011;5404;42.656;23.336;2024-03-17T00:47:21;65.03;;;31.75;;
10705;SDS011;5404;42.656;23.336;2024-03-17T00:49:47;66.90;;;33.70;;
10705;SDS011;5404;42.656;23.336;2024-03-17T00:52:15;64.80;;;33.10;;
10705;SDS011;5404;42.656;23.336;2024-03-17T00:54:40;101.80;;;39.65;;
10705;SDS011;5404;42.656;23.336;2024-03-17T00:57:06;72.38;;;33.60;;
10705;SDS011;5404;42.656;23.336;2024-03-17T00:59:32;68.75;;;32.80;;
10705;SDS011;5404;42.656;23.336;2024-03-17T01:01:58;61.20;;;31.35;;
10705;SDS011;5404;42.656;23.336;2024-03-17T01:04:23;64.82;;;32.17;;
10705;SDS011;5404;42.656;23.336;2024-03-17T01:06:48;66.05;;;32.35;;
10705;SDS011;5404;42.656;23.336;2024-03-17T01:09:14;66.35;;;32.15;;
10705;SDS011;5404;42.656;23.336;2024-03-17T01:11:41;67.25;;;31.92;;
10705;SDS011;5404;42.656;23.336;2024-03-17T01:14:06;63.20;;;31.88;;
10705;SDS011;5404;42.656;23.336;2024-03-17T01:16:32;66.85;;;31.92;;
10705;SDS011;5404;42.656;23.336;2024-03-17T01:18:58;63.65;;;32.28;;
10705;SDS011;5404;42.656;23.336;2024-03-17T01:21:24;63.08;;;32.13;;
10705;SDS011;5404;42.656;23.336;2024-03-17T01:23:49;64.68;;;32.67;;
10705;SDS011;5404;42.656;23.336;2024-03-17T01:26:15;65.22;;;32.00;;
10705;SDS011;5404;42.656;23.336;2024-03-17T01:28:40;63.10;;;32.33;;
10705;SDS011;5404;42.656;23.336;2024-03-17T01:31:06;65.15;;;32.67;;
10705;SDS011;5404;42.656;23.336;2024-03-17T01:33:32;67.45;;;33.05;;
10705;SDS011;5404;42.656;23.336;2024-03-17T01:35:57;75.78;;;33.67;;
10705;SDS011;5404;42.656;23.336;2024-03-17T01:38:23;71.00;;;32.75;;
10705;SDS011;5404;42.656;23.336;2024-03-17T01:40:48;68.90;;;33.92;;
10705;SDS011;5404;42.656;23.336;2024-03-17T01:43:14;69.05;;;32.08;;
10705;SDS011;5404;42.656;23.336;2024-03-17T01:45:39;62.80;;;31.65;;
10705;SDS011;5404;42.656;23.336;2024-03-17T01:48:08;67.68;;;32.80;;
10705;SDS011;5404;42.656;23.336;2024-03-17T01:50:37;68.32;;;33.03;;
10705;SDS011;5404;42.656;23.336;2024-03-17T01:53:04;62.05;;;33.50;;
10705;SDS011;5404;42.656;23.336;2024-03-17T01:55:37;70.70;;;34.83;;
10705;SDS011;5404;42.656;23.336;2024-03-17T01:58:04;67.30;;;33.83;;
10705;SDS011;5404;42.656;23.336;2024-03-17T02:00:34;65.82;;;33.95;;
10705;SDS011;5404;42.656;23.336;2024-03-17T02:03:02;76.65;;;35.00;;
10705;SDS011;5404;42.656;23.336;2024-03-17T02:05:28;72.90;;;35.60;;
10705;SDS011;5404;42.656;23.336;2024-03-17T02:07:54;65.50;;;34.78;;
10705;SDS011;5404;42.656;23.336;2024-03-17T02:10:19;88.53;;;35.53;;
10705;SDS011;5404;42.656;23.336;2024-03-17T02:12:46;71.53;;;35.20;;
10705;SDS011;5404;42.656;23.336;2024-03-17T02:15:12;70.78;;;34.47;;
10705;SDS011;5404;42.656;23.336;2024-03-17T02:17:39;71.70;;;35.28;;
10705;SDS011;5404;42.656;23.336;2024-03-17T02:20:05;67.15;;;32.38;;
10705;SDS011;5404;42.656;23.336;2024-03-17T02:22:36;69.35;;;34.20;;
10705;SDS011;5404;42.656;23.336;2024-03-17T02:25:02;73.07;;;34.72;;
10705;SDS011;5404;42.656;23.336;2024-03-17T02:27:28;70.85;;;34.72;;
10705;SDS011;5404;42.656;23.336;2024-03-17T02:29:54;68.57;;;32.75;;
10705;SDS011;5404;42.656;23.336;2024-03-17T02:32:19;66.80;;;32.80;;
10705;SDS011;5404;42.656;23.336;2024-03-17T02:34:47;65.70;;;33.35;;
10705;SDS011;5404;42.656;23.336;2024-03-17T02:37:13;64.15;;;32.85;;
10705;SDS011;5404;42.656;23.336;2024-03-17T02:39:38;74.15;;;35.17;;
10705;SDS011;5404;42.656;23.336;2024-03-17T02:42:05;65.53;;;34.13;;
10705;SDS011;5404;42.656;23.336;2024-03-17T02:44:34;72.40;;;34.70;;
10705;SDS011;5404;42.656;23.336;2024-03-17T02:47:02;69.80;;;34.15;;
10705;SDS011;5404;42.656;23.336;2024-03-17T02:49:35;70.60;;;34.72;;
10705;SDS011;5404;42.656;23.336;2024-03-17T02:52:14;70.38;;;34.55;;
10705;SDS011;5404;42.656;23.336;2024-03-17T02:54:40;67.45;;;33.13;;
10705;SDS011;5404;42.656;23.336;2024-03-17T02:57:06;67.85;;;33.55;;
10705;SDS011;5404;42.656;23.336;2024-03-17T02:59:32;67.65;;;33.47;;
10705;SDS011;5404;42.656;23.336;2024-03-17T03:01:58;67.05;;;31.23;;
10705;SDS011;5404;42.656;23.336;2024-03-17T03:04:24;65.72;;;32.55;;
10705;SDS011;5404;42.656;23.336;2024-03-17T03:06:50;63.72;;;32.58;;
10705;SDS011;5404;42.656;23.336;2024-03-17T03:09:15;63.83;;;31.63;;
10705;SDS011;5404;42.656;23.336;2024-03-17T03:11:46;63.28;;;32.55;;
10705;SDS011;5404;42.656;23.336;2024-03-17T03:14:12;67.75;;;34.35;;
10705;SDS011;5404;42.656;23.336;2024-03-17T03:16:38;71.97;;;34.42;;
10705;SDS011;5404;42.656;23.336;2024-03-17T03:19:03;68.85;;;35.70;;
10705;SDS011;5404;42.656;23.336;2024-03-17T03:21:30;65.47;;;34.85;;
10705;SDS011;5404;42.656;23.336;2024-03-17T03:23:56;77.25;;;34.40;;
10705;SDS011;5404;42.656;23.336;2024-03-17T03:26:21;68.50;;;34.45;;
10705;SDS011;5404;42.656;23.336;2024-03-17T03:28:48;68.03;;;32.45;;
10705;SDS011;5404;42.656;23.336;2024-03-17T03:31:19;72.07;;;33.25;;
10705;SDS011;5404;42.656;23.336;2024-03-17T03:33:44;64.28;;;32.75;;
10705;SDS011;5404;42.656;23.336;2024-03-17T03:36:11;61.90;;;32.33;;
10705;SDS011;5404;42.656;23.336;2024-03-17T03:38:37;66.75;;;32.88;;
10705;SDS011;5404;42.656;23.336;2024-03-17T03:41:07;71.28;;;31.80;;
10705;SDS011;5404;42.656;23.336;2024-03-17T03:43:34;66.00;;;33.28;;
10705;SDS011;5404;42.656;23.336;2024-03-17T03:46:00;64.47;;;31.23;;
10705;SDS011;5404;42.656;23.336;2024-03-17T03:48:26;61.17;;;30.83;;
10705;SDS011;5404;42.656;23.336;2024-03-17T03:50:51;61.75;;;31.52;;
10705;SDS011;5404;42.656;23.336;2024-03-17T03:53:17;64.50;;;32.22;;
10705;SDS011;5404;42.656;23.336;2024-03-17T03:55:42;67.32;;;31.30;;
10705;SDS011;5404;42.656;23.336;2024-03-17T03:58:07;61.25;;;31.02;;
10705;SDS011;5404;42.656;23.336;2024-03-17T04:00:33;67.32;;;33.05;;
10705;SDS011;5404;42.656;23.336;2024-03-17T04:02:59;68.45;;;32.20;;
10705;SDS011;5404;42.656;23.336;2024-03-17T04:05:26;66.53;;;33.58;;
10705;SDS011;5404;42.656;23.336;2024-03-17T04:07:52;69.45;;;32.30;;
10705;SDS011;5404;42.656;23.336;2024-03-17T04:10:18;63.38;;;30.92;;
10705;SDS011;5404;42.656;23.336;2024-03-17T04:12:45;66.20;;;31.73;;
10705;SDS011;5404;42.656;23.336;2024-03-17T04:15:11;62.95;;;32.03;;
10705;SDS011;5404;42.656;23.336;2024-03-17T04:17:37;61.70;;;29.65;;
10705;SDS011;5404;42.656;23.336;2024-03-17T04:20:03;61.72;;;32.40;;
10705;SDS011;5404;42.656;23.336;2024-03-17T04:22:49;64.13;;;31.75;;
10705;SDS011;5404;42.656;23.336;2024-03-17T04:25:14;66.57;;;30.63;;
10705;SDS011;5404;42.656;23.336;2024-03-17T04:27:40;63.28;;;33.20;;
10705;SDS011;5404;42.656;23.336;2024-03-17T04:30:06;67.88;;;33.58;;
10705;SDS011;5404;42.656;23.336;2024-03-17T04:32:32;73.53;;;34.38;;
10705;SDS011;5404;42.656;23.336;2024-03-17T04:34:58;67.43;;;31.50;;
10705;SDS011;5404;42.656;23.336;2024-03-17T04:37:24;65.47;;;29.23;;
10705;SDS011;5404;42.656;23.336;2024-03-17T04:39:49;67.40;;;32.38;;
10705;SDS011;5404;42.656;23.336;2024-03-17T04:42:16;75.95;;;32.22;;
10705;SDS011;5404;42.656;23.336;2024-03-17T04:44:43;71.10;;;32.40;;
10705;SDS011;5404;42.656;23.336;2024-03-17T04:47:09;61.15;;;30.88;;
10705;SDS011;5404;42.656;23.336;2024-03-17T04:49:39;66.15;;;31.17;;
10705;SDS011;5404;42.656;23.336;2024-03-17T04:52:06;72.78;;;32.75;;
10705;SDS011;5404;42.656;23.336;2024-03-17T04:54:34;65.40;;;32.38;;
10705;SDS011;5404;42.656;23.336;2024-03-17T04:57:00;79.38;;;32.60;;
10705;SDS011;5404;42.656;23.336;2024-03-17T04:59:26;71.03;;;31.10;;
10705;SDS011;5404;42.656;23.336;2024-03-17T05:01:52;65.22;;;31.23;;
10705;SDS011;5404;42.656;23.336;2024-03-17T05:04:18;64.63;;;30.20;;
10705;SDS011;5404;42.656;23.336;2024-03-17T05:06:43;72.63;;;31.05;;
10705;SDS011;5404;42.656;23.336;2024-03-17T05:09:12;62.92;;;31.02;;
10705;SDS011;5404;42.656;23.336;2024-03-17T05:11:38;76.35;;;31.05;;
10705;SDS011;5404;42.656;23.336;2024-03-17T05:14:05;65.55;;;30.98;;
10705;SDS011;5404;42.656;23.336;2024-03-17T05:16:30;66.40;;;30.10;;
10705;SDS011;5404;42.656;23.336;2024-03-17T05:18:55;56.42;;;29.40;;
10705;SDS011;5404;42.656;23.336;2024-03-17T05:21:21;58.40;;;30.00;;
10705;SDS011;5404;42.656;23.336;2024-03-17T05:23:51;59.30;;;29.52;;
10705;SDS011;5404;42.656;23.336;2024-03-17T05:26:17;56.50;;;29.20;;
10705;SDS011;5404;42.656;23.336;2024-03-17T05:28:42;59.45;;;30.17;;
10705;SDS011;5404;42.656;23.336;2024-03-17T05:31:09;68.05;;;29.88;;
10705;SDS011;5404;42.656;23.336;2024-03-17T05:33:34;63.28;;;29.67;;
10705;SDS011;5404;42.656;23.336;2024-03-17T05:36:01;69.85;;;33.22;;
10705;SDS011;5404;42.656;23.336;2024-03-17T05:38:28;55.60;;;29.42;;
10705;SDS011;5404;42.656;23.336;2024-03-17T05:41:01;63.13;;;32.80;;
10705;SDS011;5404;42.656;23.336;2024-03-17T05:43:28;67.28;;;31.45;;
10705;SDS011;5404;42.656;23.336;2024-03-17T05:45:59;57.83;;;31.20;;
10705;SDS011;5404;42.656;23.336;2024-03-17T05:48:26;73.80;;;34.70;;
10705;SDS011;5404;42.656;23.336;2024-03-17T05:50:52;79.10;;;33.47;;
10705;SDS011;5404;42.656;23.336;2024-03-17T05:53:18;66.03;;;31.70;;
10705;SDS011;5404;42.656;23.336;2024-03-17T05:55:49;65.95;;;32.25;;
10705;SDS011;5404;42.656;23.336;2024-03-17T05:58:14;71.10;;;32.67;;
10705;SDS011;5404;42.656;23.336;2024-03-17T06:00:40;82.03;;;35.00;;
10705;SDS011;5404;42.656;23.336;2024-03-17T06:03:06;64.35;;;31.00;;
10705;SDS011;5404;42.656;23.336;2024-03-17T06:05:35;63.58;;;31.15;;
10705;SDS011;5404;42.656;23.336;2024-03-17T06:08:02;78.82;;;31.85;;
10705;SDS011;5404;42.656;23.336;2024-03-17T06:10:29;70.10;;;32.38;;
10705;SDS011;5404;42.656;23.336;2024-03-17T06:12:59;57.97;;;29.90;;
10705;SDS011;5404;42.656;23.336;2024-03-17T06:15:25;63.13;;;32.05;;
10705;SDS011;5404;42.656;23.336;2024-03-17T06:17:51;69.72;;;31.40;;
10705;SDS011;5404;42.656;23.336;2024-03-17T06:20:20;62.05;;;32.42;;
10705;SDS011;5404;42.656;23.336;2024-03-17T06:22:48;63.85;;;32.10;;
10705;SDS011;5404;42.656;23.336;2024-03-17T06:25:14;60.25;;;31.95;;
10705;SDS011;5404;42.656;23.336;2024-03-17T06:27:39;58.50;;;30.95;;
10705;SDS011;5404;42.656;23.336;2024-03-17T06:30:05;63.35;;;32.17;;
10705;SDS011;5404;42.656;23.336;2024-03-17T06:32:31;65.90;;;30.42;;
10705;SDS011;5404;42.656;23.336;2024-03-17T06:35:03;52.05;;;27.40;;
10705;SDS011;5404;42.656;23.336;2024-03-17T06:37:29;53.38;;;27.27;;
10705;SDS011;5404;42.656;23.336;2024-03-17T06:39:54;55.75;;;27.80;;
10705;SDS011;5404;42.656;23.336;2024-03-17T06:42:20;55.83;;;28.13;;
10705;SDS011;5404;42.656;23.336;2024-03-17T06:44:45;51.13;;;26.40;;
10705;SDS011;5404;42.656;23.336;2024-03-17T06:47:11;49.88;;;27.25;;
10705;SDS011;5404;42.656;23.336;2024-03-17T06:49:37;50.15;;;28.17;;
10705;SDS011;5404;42.656;23.336;2024-03-17T06:52:03;62.50;;;26.90;;
10705;SDS011;5404;42.656;23.336;2024-03-17T06:54:28;47.85;;;25.80;;
10705;SDS011;5404;42.656;23.336;2024-03-17T06:56:54;52.38;;;26.63;;
10705;SDS011;5404;42.656;23.336;2024-03-17T06:59:19;48.97;;;24.73;;
10705;SDS011;5404;42.656;23.336;2024-03-17T07:04:13;51.67;;;25.77;;
10705;SDS011;5404;42.656;23.336;2024-03-17T07:06:39;50.58;;;26.60;;
10705;SDS011;5404;42.656;23.336;2024-03-17T07:09:04;51.05;;;26.27;;
10705;SDS011;5404;42.656;23.336;2024-03-17T07:11:30;58.05;;;26.45;;
10705;SDS011;5404;42.656;23.336;2024-03-17T07:13:56;51.00;;;25.33;;
10705;SDS011;5404;42.656;23.336;2024-03-17T07:16:22;96.97;;;42.90;;
10705;SDS011;5404;42.656;23.336;2024-03-17T07:18:50;67.50;;;34.03;;
10705;SDS011;5404;42.656;23.336;2024-03-17T07:21:15;49.50;;;25.85;;
10705;SDS011;5404;42.656;23.336;2024-03-17T07:23:40;56.00;;;25.65;;
10705;SDS011;5404;42.656;23.336;2024-03-17T07:26:06;47.40;;;25.25;;
10705;SDS011;5404;42.656;23.336;2024-03-17T07:28:32;48.13;;;25.35;;
10705;SDS011;5404;42.656;23.336;2024-03-17T07:30:58;43.95;;;23.10;;
10705;SDS011;5404;42.656;23.336;2024-03-17T07:33:25;50.90;;;24.67;;
10705;SDS011;5404;42.656;23.336;2024-03-17T07:35:58;44.47;;;23.75;;
10705;SDS011;5404;42.656;23.336;2024-03-17T07:38:28;41.60;;;23.02;;
10705;SDS011;5404;42.656;23.336;2024-03-17T07:40:57;40.15;;;20.98;;
10705;SDS011;5404;42.656;23.336;2024-03-17T07:43:23;36.15;;;21.27;;
10705;SDS011;5404;42.656;23.336;2024-03-17T07:45:58;44.45;;;23.75;;
10705;SDS011;5404;42.656;23.336;2024-03-17T07:48:25;42.67;;;22.73;;
10705;SDS011;5404;42.656;23.336;2024-03-17T07:50:56;41.75;;;22.75;;
10705;SDS011;5404;42.656;23.336;2024-03-17T07:53:23;47.88;;;22.15;;
10705;SDS011;5404;42.656;23.336;2024-03-17T07:55:58;38.35;;;21.50;;
10705;SDS011;5404;42.656;23.336;2024-03-17T07:58:31;40.58;;;20.13;;
10705;SDS011;5404;42.656;23.336;2024-03-17T08:01:02;41.72;;;21.42;;
10705;SDS011;5404;42.656;23.336;2024-03-17T08:03:31;38.97;;;19.23;;
10705;SDS011;5404;42.656;23.336;2024-03-17T08:05:59;36.70;;;19.77;;
10705;SDS011;5404;42.656;23.336;2024-03-17T08:08:28;39.92;;;19.83;;
10705;SDS011;5404;42.656;23.336;2024-03-17T08:10:54;38.67;;;19.33;;
10705;SDS011;5404;42.656;23.336;2024-03-17T08:13:20;38.58;;;20.52;;
10705;SDS011;5404;42.656;23.336;2024-03-17T08:15:46;43.70;;;20.17;;
10705;SDS011;5404;42.656;23.336;2024-03-17T08:18:20;37.50;;;19.65;;
10705;SDS011;5404;42.656;23.336;2024-03-17T08:20:45;34.63;;;19.63;;
10705;SDS011;5404;42.656;23.336;2024-03-17T08:23:12;32.35;;;18.55;;
10705;SDS011;5404;42.656;23.336;2024-03-17T08:25:37;36.88;;;17.30;;
10705;SDS011;5404;42.656;23.336;2024-03-17T08:28:03;28.48;;;16.92;;
10705;SDS011;5404;42.656;23.336;2024-03-17T08:30:29;24.10;;;14.40;;
10705;SDS011;5404;42.656;23.336;2024-03-17T08:32:57;26.55;;;16.05;;
10705;SDS011;5404;42.656;23.336;2024-03-17T08:35:23;32.22;;;15.23;;
10705;SDS011;5404;42.656;23.336;2024-03-17T08:37:48;36.17;;;17.17;;
10705;SDS011;5404;42.656;23.336;2024-03-17T08:40:14;35.30;;;18.17;;
10705;SDS011;5404;42.656;23.336;2024-03-17T08:42:39;33.83;;;17.45;;
10705;SDS011;5404;42.656;23.336;2024-03-17T08:45:05;32.45;;;17.35;;
10705;SDS011;5404;42.656;23.336;2024-03-17T08:47:31;40.97;;;17.77;;
10705;SDS011;5404;42.656;23.336;2024-03-17T08:49:56;35.17;;;17.33;;
10705;SDS011;5404;42.656;23.336;2024-03-17T08:52:23;30.52;;;17.30;;
10705;SDS011;5404;42.656;23.336;2024-03-17T08:54:48;36.97;;;18.95;;
10705;SDS011;5404;42.656;23.336;2024-03-17T08:57:16;31.83;;;18.23;;
10705;SDS011;5404;42.656;23.336;2024-03-17T08:59:42;26.40;;;16.98;;
10705;SDS011;5404;42.656;23.336;2024-03-17T09:02:11;32.22;;;19.02;;
10705;SDS011;5404;42.656;23.336;2024-03-17T09:04:39;38.50;;;20.15;;
10705;SDS011;5404;42.656;23.336;2024-03-17T09:07:07;33.03;;;19.63;;
10705;SDS011;5404;42.656;23.336;2024-03-17T09:09:33;33.03;;;18.20;;
10705;SDS011;5404;42.656;23.336;2024-03-17T09:11:58;32.65;;;18.92;;
10705;SDS011;5404;42.656;23.336;2024-03-17T09:14:24;36.08;;;18.70;;
10705;SDS011;5404;42.656;23.336;2024-03-17T09:16:50;34.25;;;18.35;;
10705;SDS011;5404;42.656;23.336;2024-03-17T09:19:15;36.75;;;17.02;;
10705;SDS011;5404;42.656;23.336;2024-03-17T09:21:40;25.58;;;15.68;;
10705;SDS011;5404;42.656;23.336;2024-03-17T09:24:06;24.70;;;13.20;;
10705;SDS011;5404;42.656;23.336;2024-03-17T09:26:36;23.70;;;14.38;;
10705;SDS011;5404;42.656;23.336;2024-03-17T09:29:04;24.13;;;12.77;;
10705;SDS011;5404;42.656;23.336;2024-03-17T09:31:30;22.50;;;13.38;;
10705;SDS011;5404;42.656;23.336;2024-03-17T09:33:58;20.40;;;13.63;;
10705;SDS011;5404;42.656;23.336;2024-03-17T09:36:24;25.63;;;14.25;;
10705;SDS011;5404;42.656;23.336;2024-03-17T09:38:49;18.77;;;12.63;;
10705;SDS011;5404;42.656;23.336;2024-03-17T09:41:19;19.27;;;11.65;;
10705;SDS011;5404;42.656;23.336;2024-03-17T09:43:47;18.95;;;10.52;;
10705;SDS011;5404;42.656;23.336;2024-03-17T09:46:13;14.98;;;9.48;;
10705;SDS011;5404;42.656;23.336;2024-03-17T09:48:40;17.10;;;10.32;;
10705;SDS011;5404;42.656;23.336;2024-03-17T09:51:05;20.00;;;11.55;;
10705;SDS011;5404;42.656;23.336;2024-03-17T09:53:34;18.75;;;9.77;;
10705;SDS011;5404;42.656;23.336;2024-03-17T09:56:08;16.55;;;9.50;;
10705;SDS011;5404;42.656;23.336;2024-03-17T09:58:36;20.25;;;9.23;;
10705;SDS011;5404;42.656;23.336;2024-03-17T10:01:01;17.85;;;9.02;;
10705;SDS011;5404;42.656;23.336;2024-03-17T10:06:15;13.63;;;8.45;;
10705;SDS011;5404;42.656;23.336;2024-03-17T10:08:48;15.90;;;7.03;;
10705;SDS011;5404;42.656;23.336;2024-03-17T10:11:18;8.20;;;5.15;;
10705;SDS011;5404;42.656;23.336;2024-03-17T10:13:46;11.32;;;5.80;;
10705;SDS011;5404;42.656;23.336;2024-03-17T10:16:24;12.38;;;7.25;;
10705;SDS011;5404;42.656;23.336;2024-03-17T10:18:50;13.27;;;7.20;;
10705;SDS011;5404;42.656;23.336;2024-03-17T10:21:32;8.85;;;6.78;;
10705;SDS011;5404;42.656;23.336;2024-03-17T10:24:11;12.20;;;7.55;;
10705;SDS011;5404;42.656;23.336;2024-03-17T10:29:30;16.15;;;7.32;;
10705;SDS011;5404;42.656;23.336;2024-03-17T10:32:01;12.32;;;7.20;;
10705;SDS011;5404;42.656;23.336;2024-03-17T10:34:29;10.70;;;6.38;;
10705;SDS011;5404;42.656;23.336;2024-03-17T10:39:39;6.15;;;4.97;;
10705;SDS011;5404;42.656;23.336;2024-03-17T10:42:06;7.68;;;4.80;;
10705;SDS011;5404;42.656;23.336;2024-03-17T10:44:40;11.20;;;5.80;;
10705;SDS011;5404;42.656;23.336;2024-03-17T10:47:09;9.23;;;6.10;;
10705;SDS011;5404;42.656;23.336;2024-03-17T10:49:42;11.80;;;5.82;;
10705;SDS011;5404;42.656;23.336;2024-03-17T10:52:15;19.67;;;5.30;;
10705;SDS011;5404;42.656;23.336;2024-03-17T10:54:46;6.93;;;4.50;;
10705;SDS011;5404;42.656;23.336;2024-03-17T10:57:37;9.70;;;4.20;;
10705;SDS011;5404;42.656;23.336;2024-03-17T11:00:13;5.43;;;3.83;;
10705;SDS011;5404;42.656;23.336;2024-03-17T11:02:42;6.13;;;3.50;;
10705;SDS011;5404;42.656;23.336;2024-03-17T11:07:46;7.32;;;4.95;;
10705;SDS011;5404;42.656;23.336;2024-03-17T11:10:27;8.73;;;5.75;;
10705;SDS011;5404;42.656;23.336;2024-03-17T11:12:54;9.35;;;4.20;;
10705;SDS011;5404;42.656;23.336;2024-03-17T11:17:52;8.18;;;4.38;;
10705;SDS011;5404;42.656;23.336;2024-03-17T11:20:26;9.07;;;5.85;;
10705;SDS011;5404;42.656;23.336;2024-03-17T11:23:02;12.15;;;6.82;;
10705;SDS011;5404;42.656;23.336;2024-03-17T11:28:02;12.85;;;6.25;;
10705;SDS011;5404;42.656;23.336;2024-03-17T11:30:49;10.57;;;6.93;;
10705;SDS011;5404;42.656;23.336;2024-03-17T11:44:13;11.02;;;5.35;;
10705;SDS011;5404;42.656;23.336;2024-03-17T11:46:39;13.93;;;4.90;;
10705;SDS011;5404;42.656;23.336;2024-03-17T11:49:05;5.97;;;4.57;;
10705;SDS011;5404;42.656;23.336;2024-03-17T11:51:33;9.07;;;5.00;;
10705;SDS011;5404;42.656;23.336;2024-03-17T11:54:00;7.78;;;5.57;;
10705;SDS011;5404;42.656;23.336;2024-03-17T11:56:26;8.85;;;5.75;;
10705;SDS011;5404;42.656;23.336;2024-03-17T11:59:05;8.98;;;4.88;;
10705;SDS011;5404;42.656;23.336;2024-03-17T12:01:34;6.78;;;4.25;;
10705;SDS011;5404;42.656;23.336;2024-03-17T12:03:59;9.60;;;5.10;;
10705;SDS011;5404;42.656;23.336;2024-03-17T12:06:30;9.07;;;4.25;;
10705;SDS011;5404;42.656;23.336;2024-03-17T12:09:07;7.05;;;4.80;;
10705;SDS011;5404;42.656;23.336;2024-03-17T12:11:35;12.07;;;5.10;;
10705;SDS011;5404;42.656;23.336;2024-03-17T12:14:08;8.15;;;5.68;;
10705;SDS011;5404;42.656;23.336;2024-03-17T12:16:38;9.45;;;5.47;;
10705;SDS011;5404;42.656;23.336;2024-03-17T12:19:13;9.07;;;5.65;;
10705;SDS011;5404;42.656;23.336;2024-03-17T12:21:41;10.57;;;5.45;;
10705;SDS011;5404;42.656;23.336;2024-03-17T12:24:13;27.15;;;6.53;;
10705;SDS011;5404;42.656;23.336;2024-03-17T12:26:41;9.82;;;5.50;;
10705;SDS011;5404;42.656;23.336;2024-03-17T12:29:24;8.40;;;5.85;;
10705;SDS011;5404;42.656;23.336;2024-03-17T12:31:52;9.77;;;5.35;;
10705;SDS011;5404;42.656;23.336;2024-03-17T12:34:19;9.02;;;6.07;;
10705;SDS011;5404;42.656;23.336;2024-03-17T12:36:46;10.18;;;5.10;;
10705;SDS011;5404;42.656;23.336;2024-03-17T12:39:22;8.38;;;5.72;;
10705;SDS011;5404;42.656;23.336;2024-03-17T12:44:38;24.67;;;5.82;;
10705;SDS011;5404;42.656;23.336;2024-03-17T12:50:00;15.88;;;6.85;;
10705;SDS011;5404;42.656;23.336;2024-03-17T12:52:31;7.50;;;5.70;;
10705;SDS011;5404;42.656;23.336;2024-03-17T12:54:58;8.80;;;6.00;;
10705;SDS011;5404;42.656;23.336;2024-03-17T12:57:44;10.00;;;5.82;;
10705;SDS011;5404;42.656;23.336;2024-03-17T13:00:29;11.00;;;6.28;;
10705;SDS011;5404;42.656;23.336;2024-03-17T13:05:30;10.77;;;6.88;;
10705;SDS011;5404;42.656;23.336;2024-03-17T13:07:56;12.40;;;7.10;;
10705;SDS011;5404;42.656;23.336;2024-03-17T13:10:23;11.18;;;7.20;;
10705;SDS011;5404;42.656;23.336;2024-03-17T13:13:12;14.98;;;7.80;;
10705;SDS011;5404;42.656;23.336;2024-03-17T13:15:38;13.77;;;6.63;;
10705;SDS011;5404;42.656;23.336;2024-03-17T13:18:03;12.05;;;7.60;;
10705;SDS011;5404;42.656;23.336;2024-03-17T13:20:30;10.98;;;7.35;;
10705;SDS011;5404;42.656;23.336;2024-03-17T13:22:56;13.20;;;6.85;;
10705;SDS011;5404;42.656;23.336;2024-03-17T13:25:23;14.40;;;8.40;;
10705;SDS011;5404;42.656;23.336;2024-03-17T13:27:52;10.88;;;6.82;;
10705;SDS011;5404;42.656;23.336;2024-03-17T13:30:19;13.43;;;7.78;;
10705;SDS011;5404;42.656;23.336;2024-03-17T13:32:49;17.80;;;9.13;;
10705;SDS011;5404;42.656;23.336;2024-03-17T13:35:21;21.02;;;8.70;;
10705;SDS011;5404;42.656;23.336;2024-03-17T13:37:49;12.73;;;8.85;;
10705;SDS011;5404;42.656;23.336;2024-03-17T13:40:16;13.93;;;7.75;;
10705;SDS011;5404;42.656;23.336;2024-03-17T13:42:44;12.52;;;7.53;;
10705;SDS011;5404;42.656;23.336;2024-03-17T13:45:18;13.00;;;8.82;;
10705;SDS011;5404;42.656;23.336;2024-03-17T13:47:56;17.88;;;8.05;;
10705;SDS011;5404;42.656;23.336;2024-03-17T13:50:23;13.05;;;7.28;;
10705;SDS011;5404;42.656;23.336;2024-03-17T13:52:49;13.50;;;8.48;;
10705;SDS011;5404;42.656;23.336;2024-03-17T13:57:43;14.85;;;8.25;;
10705;SDS011;5404;42.656;23.336;2024-03-17T14:00:09;15.93;;;8.63;;
10705;SDS011;5404;42.656;23.336;2024-03-17T14:02:35;15.02;;;8.95;;
10705;SDS011;5404;42.656;23.336;2024-03-17T14:05:01;15.57;;;9.32;;
10705;SDS011;5404;42.656;23.336;2024-03-17T14:07:27;16.05;;;8.07;;
10705;SDS011;5404;42.656;23.336;2024-03-17T14:09:53;17.85;;;8.90;;
10705;SDS011;5404;42.656;23.336;2024-03-17T14:12:18;15.73;;;8.80;;
10705;SDS011;5404;42.656;23.336;2024-03-17T14:14:44;20.05;;;11.02;;
10705;SDS011;5404;42.656;23.336;2024-03-17T14:17:09;16.80;;;9.55;;
10705;SDS011;5404;42.656;23.336;2024-03-17T14:19:35;13.60;;;8.93;;
10705;SDS011;5404;42.656;23.336;2024-03-17T14:22:00;14.68;;;8.95;;
10705;SDS011;5404;42.656;23.336;2024-03-17T14:24:26;14.40;;;7.82;;
10705;SDS011;5404;42.656;23.336;2024-03-17T14:26:52;21.90;;;9.45;;
10705;SDS011;5404;42.656;23.336;2024-03-17T14:29:17;13.63;;;8.63;;
10705;SDS011;5404;42.656;23.336;2024-03-17T14:31:43;16.88;;;9.13;;
10705;SDS011;5404;42.656;23.336;2024-03-17T14:34:09;14.05;;;9.40;;
10705;SDS011;5404;42.656;23.336;2024-03-17T14:36:36;16.60;;;9.25;;
10705;SDS011;5404;42.656;23.336;2024-03-17T14:39:03;13.93;;;8.73;;
10705;SDS011;5404;42.656;23.336;2024-03-17T14:41:31;15.77;;;8.98;;
10705;SDS011;5404;42.656;23.336;2024-03-17T14:43:57;14.45;;;8.90;;
10705;SDS011;5404;42.656;23.336;2024-03-17T14:46:23;18.50;;;10.52;;
10705;SDS011;5404;42.656;23.336;2024-03-17T14:48:49;14.20;;;8.90;;
10705;SDS011;5404;42.656;23.336;2024-03-17T14:51:16;17.20;;;9.73;;
10705;SDS011;5404;42.656;23.336;2024-03-17T14:53:42;14.43;;;9.20;;
10705;SDS011;5404;42.656;23.336;2024-03-17T14:56:13;14.38;;;8.68;;
10705;SDS011;5404;42.656;23.336;2024-03-17T14:58:40;19.67;;;10.18;;
10705;SDS011;5404;42.656;23.336;2024-03-17T15:01:05;16.88;;;9.95;;
10705;SDS011;5404;42.656;23.336;2024-03-17T15:03:30;16.40;;;9.52;;
10705;SDS011;5404;42.656;23.336;2024-03-17T15:05:56;21.65;;;10.73;;
10705;SDS011;5404;42.656;23.336;2024-03-17T15:08:21;17.55;;;10.32;;
10705;SDS011;5404;42.656;23.336;2024-03-17T15:10:47;19.42;;;9.57;;